sensor_id;sensor_type;location;lat;lon;timestamp;temperature;humidity
27741;DHT22;15134;48.768;9.184;2023-11-22T00:01:13;9.00;99.90
27741;DHT22;15134;48.768;9.184;2023-11-22T00:03:39;9.10;99.90
27741;DHT22;15134;48.768;9.184;2023-11-22T00:06:11;9.10;99.90
27741;DHT22;15134;48.768;9.184;2023-11-22T00:08:41;9.10;99.90
27741;DHT22;15134;48.768;9.184;2023-11-22T00:11:15;9.10;99.90
27741;DHT22;15134;48.768;9.184;2023-11-22T00:13:41;8.80;99.90
27741;DHT22;15134;48.768;9.184;2023-11-22T00:16:06;8.70;99.90
27741;DHT22;15134;48.768;9.184;2023-11-22T00:18:35;8.40;99.90
27741;DHT22;15134;48.768;9.184;2023-11-22T00:44:03;7.20;99.90
27741;DHT22;15134;48.768;9.184;2023-11-22T00:46:29;7.20;99.90
27741;DHT22;15134;48.768;9.184;2023-11-22T00:48:55;7.30;99.90
27741;DHT22;15134;48.768;9.184;2023-11-22T00:51:21;7.30;99.90
27741;DHT22;15134;48.768;9.184;2023-11-22T00:53:47;7.30;99.90
27741;DHT22;15134;48.768;9.184;2023-11-22T00:56:14;7.20;99.90
27741;DHT22;15134;48.768;9.184;2023-11-22T00:58:41;7.10;99.90
27741;DHT22;15134;48.768;9.184;2023-11-22T01:01:16;7.00;99.90
27741;DHT22;15134;48.768;9.184;2023-11-22T01:03:45;7.00;99.90
27741;DHT22;15134;48.768;9.184;2023-11-22T01:06:13;7.00;99.90
27741;DHT22;15134;48.768;9.184;2023-11-22T01:08:49;7.00;99.90
27741;DHT22;15134;48.768;9.184;2023-11-22T01:11:18;7.00;99.90
27741;DHT22;15134;48.768;9.184;2023-11-22T01:13:44;7.10;99.90
27741;DHT22;15134;48.768;9.184;2023-11-22T01:16:10;7.20;99.90
27741;DHT22;15134;48.768;9.184;2023-11-22T01:18:36;7.10;99.90
27741;DHT22;15134;48.768;9.184;2023-11-22T01:21:03;7.10;99.90
27741;DHT22;15134;48.768;9.184;2023-11-22T01:23:31;7.10;99.90
27741;DHT22;15134;48.768;9.184;2023-11-22T01:25:58;6.90;99.90
27741;DHT22;15134;48.768;9.184;2023-11-22T01:28:25;6.80;99.90
27741;DHT22;15134;48.768;9.184;2023-11-22T01:31:00;6.70;99.90
27741;DHT22;15134;48.768;9.184;2023-11-22T01:33:35;6.70;99.90
27741;DHT22;15134;48.768;9.184;2023-11-22T01:36:03;6.70;99.90
27741;DHT22;15134;48.768;9.184;2023-11-22T01:38:33;6.70;99.90
27741;DHT22;15134;48.768;9.184;2023-11-22T01:41:25;6.70;99.90
27741;DHT22;15134;48.768;9.184;2023-11-22T01:43:51;6.70;99.90
27741;DHT22;15134;48.768;9.184;2023-11-22T01:46:23;6.70;99.90
27741;DHT22;15134;48.768;9.184;2023-11-22T01:48:50;6.80;99.90
27741;DHT22;15134;48.768;9.184;2023-11-22T01:51:22;6.80;99.90
27741;DHT22;15134;48.768;9.184;2023-11-22T01:53:52;6.70;99.90
27741;DHT22;15134;48.768;9.184;2023-11-22T01:56:26;6.60;99.90
27741;DHT22;15134;48.768;9.184;2023-11-22T01:58:53;6.70;99.90
27741;DHT22;15134;48.768;9.184;2023-11-22T02:01:21;6.90;99.90
27741;DHT22;15134;48.768;9.184;2023-11-22T02:03:47;6.90;99.90
27741;DHT22;15134;48.768;9.184;2023-11-22T02:06:16;6.80;99.90
27741;DHT22;15134;48.768;9.184;2023-11-22T02:08:42;6.80;99.90
27741;DHT22;15134;48.768;9.184;2023-11-22T02:11:08;6.90;99.90
27741;DHT22;15134;48.768;9.184;2023-11-22T02:13:35;6.90;99.90
27741;DHT22;15134;48.768;9.184;2023-11-22T02:16:02;6.80;99.90
27741;DHT22;15134;48.768;9.184;2023-11-22T02:18:29;6.90;99.90
27741;DHT22;15134;48.768;9.184;2023-11-22T02:20:56;6.90;99.90
27741;DHT22;15134;48.768;9.184;2023-11-22T02:23:22;6.70;99.90
27741;DHT22;15134;48.768;9.184;2023-11-22T02:25:47;6.70;99.90
27741;DHT22;15134;48.768;9.184;2023-11-22T02:28:15;6.60;99.90
27741;DHT22;15134;48.768;9.184;2023-11-22T02:30:42;6.50;99.90
27741;DHT22;15134;48.768;9.184;2023-11-22T02:33:07;6.50;99.90
27741;DHT22;15134;48.768;9.184;2023-11-22T02:35:33;6.40;99.90
27741;DHT22;15134;48.768;9.184;2023-11-22T02:38:00;6.40;99.90
27741;DHT22;15134;48.768;9.184;2023-11-22T02:40:26;6.40;99.90
27741;DHT22;15134;48.768;9.184;2023-11-22T02:42:53;6.30;99.90
27741;DHT22;15134;48.768;9.184;2023-11-22T02:45:21;6.30;99.90
27741;DHT22;15134;48.768;9.184;2023-11-22T02:47:49;6.30;99.90
27741;DHT22;15134;48.768;9.184;2023-11-22T02:50:16;6.30;99.90
27741;DHT22;15134;48.768;9.184;2023-11-22T02:52:42;6.30;99.90
27741;DHT22;15134;48.768;9.184;2023-11-22T02:55:09;6.40;99.90
27741;DHT22;15134;48.768;9.184;2023-11-22T02:57:38;6.30;99.90
27741;DHT22;15134;48.768;9.184;2023-11-22T03:00:09;6.20;99.90
27741;DHT22;15134;48.768;9.184;2023-11-22T03:02:39;6.20;99.90
27741;DHT22;15134;48.768;9.184;2023-11-22T03:05:10;6.10;99.90
27741;DHT22;15134;48.768;9.184;2023-11-22T03:07:38;6.10;99.90
27741;DHT22;15134;48.768;9.184;2023-11-22T03:10:04;6.10;99.90
27741;DHT22;15134;48.768;9.184;2023-11-22T03:12:33;6.20;99.90
27741;DHT22;15134;48.768;9.184;2023-11-22T03:14:59;6.20;99.90
27741;DHT22;15134;48.768;9.184;2023-11-22T03:17:31;6.30;99.90
27741;DHT22;15134;48.768;9.184;2023-11-22T03:19:58;6.20;99.90
27741;DHT22;15134;48.768;9.184;2023-11-22T03:22:25;6.20;99.90
27741;DHT22;15134;48.768;9.184;2023-11-22T03:24:51;6.20;99.90
27741;DHT22;15134;48.768;9.184;2023-11-22T03:27:18;6.20;99.90
27741;DHT22;15134;48.768;9.184;2023-11-22T03:29:46;6.10;99.90
27741;DHT22;15134;48.768;9.184;2023-11-22T03:32:12;6.00;99.90
27741;DHT22;15134;48.768;9.184;2023-11-22T03:34:39;5.90;99.90
27741;DHT22;15134;48.768;9.184;2023-11-22T03:37:04;5.80;99.90
27741;DHT22;15134;48.768;9.184;2023-11-22T03:39:30;5.70;99.90
27741;DHT22;15134;48.768;9.184;2023-11-22T03:41:56;5.60;99.90
27741;DHT22;15134;48.768;9.184;2023-11-22T03:44:23;5.50;99.90
27741;DHT22;15134;48.768;9.184;2023-11-22T03:46:49;5.40;99.90
27741;DHT22;15134;48.768;9.184;2023-11-22T03:49:14;5.40;99.90
27741;DHT22;15134;48.768;9.184;2023-11-22T03:51:42;5.40;99.90
27741;DHT22;15134;48.768;9.184;2023-11-22T03:54:08;5.30;99.90
27741;DHT22;15134;48.768;9.184;2023-11-22T03:56:35;5.40;99.90
27741;DHT22;15134;48.768;9.184;2023-11-22T03:59:01;5.50;99.90
27741;DHT22;15134;48.768;9.184;2023-11-22T04:01:27;5.40;99.90
27741;DHT22;15134;48.768;9.184;2023-11-22T04:03:52;5.50;99.90
27741;DHT22;15134;48.768;9.184;2023-11-22T04:06:19;5.40;99.90
27741;DHT22;15134;48.768;9.184;2023-11-22T04:08:46;5.30;99.90
27741;DHT22;15134;48.768;9.184;2023-11-22T04:11:12;5.30;99.90
27741;DHT22;15134;48.768;9.184;2023-11-22T04:13:38;5.30;99.90
27741;DHT22;15134;48.768;9.184;2023-11-22T04:16:05;5.30;99.90
27741;DHT22;15134;48.768;9.184;2023-11-22T04:18:34;5.50;99.90
27741;DHT22;15134;48.768;9.184;2023-11-22T04:21:01;5.60;99.90
27741;DHT22;15134;48.768;9.184;2023-11-22T04:23:28;5.60;99.90
27741;DHT22;15134;48.768;9.184;2023-11-22T04:25:54;5.70;99.90
27741;DHT22;15134;48.768;9.184;2023-11-22T04:28:20;5.70;99.90
27741;DHT22;15134;48.768;9.184;2023-11-22T04:30:46;5.70;99.90
27741;DHT22;15134;48.768;9.184;2023-11-22T04:33:12;5.70;99.90
27741;DHT22;15134;48.768;9.184;2023-11-22T04:35:37;5.60;99.90
27741;DHT22;15134;48.768;9.184;2023-11-22T04:38:04;5.70;99.90
27741;DHT22;15134;48.768;9.184;2023-11-22T04:40:30;5.70;99.90
27741;DHT22;15134;48.768;9.184;2023-11-22T04:42:56;5.70;99.90
27741;DHT22;15134;48.768;9.184;2023-11-22T04:45:21;5.80;99.90
27741;DHT22;15134;48.768;9.184;2023-11-22T04:47:48;5.80;99.90
27741;DHT22;15134;48.768;9.184;2023-11-22T04:50:13;5.70;99.90
27741;DHT22;15134;48.768;9.184;2023-11-22T04:52:39;5.60;99.90
27741;DHT22;15134;48.768;9.184;2023-11-22T04:55:05;5.60;99.90
27741;DHT22;15134;48.768;9.184;2023-11-22T04:57:31;5.60;99.90
27741;DHT22;15134;48.768;9.184;2023-11-22T04:59:57;5.60;99.90
27741;DHT22;15134;48.768;9.184;2023-11-22T05:02:23;5.60;99.90
27741;DHT22;15134;48.768;9.184;2023-11-22T05:04:48;5.60;99.90
27741;DHT22;15134;48.768;9.184;2023-11-22T05:07:15;5.70;99.90
27741;DHT22;15134;48.768;9.184;2023-11-22T05:09:41;5.70;99.90
27741;DHT22;15134;48.768;9.184;2023-11-22T05:12:09;5.50;99.90
27741;DHT22;15134;48.768;9.184;2023-11-22T05:14:36;5.40;99.90
27741;DHT22;15134;48.768;9.184;2023-11-22T05:17:02;5.30;99.90
27741;DHT22;15134;48.768;9.184;2023-11-22T05:19:28;5.30;99.90
27741;DHT22;15134;48.768;9.184;2023-11-22T05:21:53;5.20;99.90
27741;DHT22;15134;48.768;9.184;2023-11-22T05:24:19;5.20;99.90
27741;DHT22;15134;48.768;9.184;2023-11-22T05:26:45;5.10;99.90
27741;DHT22;15134;48.768;9.184;2023-11-22T05:29:11;5.20;99.90
27741;DHT22;15134;48.768;9.184;2023-11-22T05:31:37;5.20;99.90
27741;DHT22;15134;48.768;9.184;2023-11-22T05:34:03;5.30;99.90
27741;DHT22;15134;48.768;9.184;2023-11-22T05:36:29;5.30;99.90
27741;DHT22;15134;48.768;9.184;2023-11-22T05:38:55;5.30;99.90
27741;DHT22;15134;48.768;9.184;2023-11-22T05:41:24;5.30;99.90
27741;DHT22;15134;48.768;9.184;2023-11-22T05:43:52;5.30;99.90
27741;DHT22;15134;48.768;9.184;2023-11-22T05:46:22;5.50;99.90
27741;DHT22;15134;48.768;9.184;2023-11-22T05:48:51;5.40;99.90
27741;DHT22;15134;48.768;9.184;2023-11-22T05:51:17;5.50;99.90
27741;DHT22;15134;48.768;9.184;2023-11-22T05:53:43;5.70;99.90
27741;DHT22;15134;48.768;9.184;2023-11-22T05:56:09;5.70;99.90
27741;DHT22;15134;48.768;9.184;2023-11-22T05:58:35;5.60;99.90
27741;DHT22;15134;48.768;9.184;2023-11-22T06:01:04;5.50;99.90
27741;DHT22;15134;48.768;9.184;2023-11-22T06:03:32;5.50;99.90
27741;DHT22;15134;48.768;9.184;2023-11-22T06:05:57;5.50;99.90
27741;DHT22;15134;48.768;9.184;2023-11-22T06:08:23;5.50;99.90
27741;DHT22;15134;48.768;9.184;2023-11-22T06:10:49;5.50;99.90
27741;DHT22;15134;48.768;9.184;2023-11-22T06:13:15;5.40;99.90
27741;DHT22;15134;48.768;9.184;2023-11-22T06:15:41;5.40;99.90
27741;DHT22;15134;48.768;9.184;2023-11-22T06:18:07;5.50;99.90
27741;DHT22;15134;48.768;9.184;2023-11-22T06:20:33;5.50;99.90
27741;DHT22;15134;48.768;9.184;2023-11-22T06:22:58;5.50;99.90
27741;DHT22;15134;48.768;9.184;2023-11-22T06:25:24;5.50;99.90
27741;DHT22;15134;48.768;9.184;2023-11-22T06:27:50;5.40;99.90
27741;DHT22;15134;48.768;9.184;2023-11-22T06:30:16;5.40;99.90
27741;DHT22;15134;48.768;9.184;2023-11-22T06:32:42;5.30;99.90
27741;DHT22;15134;48.768;9.184;2023-11-22T06:35:09;5.30;99.90
27741;DHT22;15134;48.768;9.184;2023-11-22T06:37:35;5.40;99.90
27741;DHT22;15134;48.768;9.184;2023-11-22T06:40:01;5.40;99.90
27741;DHT22;15134;48.768;9.184;2023-11-22T06:42:27;5.40;99.90
27741;DHT22;15134;48.768;9.184;2023-11-22T06:44:53;5.30;99.90
27741;DHT22;15134;48.768;9.184;2023-11-22T06:47:19;5.20;99.90
27741;DHT22;15134;48.768;9.184;2023-11-22T06:49:45;5.20;99.90
27741;DHT22;15134;48.768;9.184;2023-11-22T06:52:11;5.30;99.90
27741;DHT22;15134;48.768;9.184;2023-11-22T06:54:38;5.20;99.90
27741;DHT22;15134;48.768;9.184;2023-11-22T06:57:04;5.10;99.90
27741;DHT22;15134;48.768;9.184;2023-11-22T06:59:29;5.10;99.90
27741;DHT22;15134;48.768;9.184;2023-11-22T07:01:55;5.10;99.90
27741;DHT22;15134;48.768;9.184;2023-11-22T07:04:24;5.10;99.90
27741;DHT22;15134;48.768;9.184;2023-11-22T07:06:50;5.10;99.90
27741;DHT22;15134;48.768;9.184;2023-11-22T07:09:15;5.10;99.90
27741;DHT22;15134;48.768;9.184;2023-11-22T07:11:42;5.10;99.90
27741;DHT22;15134;48.768;9.184;2023-11-22T07:14:09;5.10;99.90
27741;DHT22;15134;48.768;9.184;2023-11-22T07:16:36;5.20;99.90
27741;DHT22;15134;48.768;9.184;2023-11-22T07:19:03;5.10;99.90
27741;DHT22;15134;48.768;9.184;2023-11-22T07:21:32;5.20;99.90
27741;DHT22;15134;48.768;9.184;2023-11-22T07:23:58;5.10;99.90
27741;DHT22;15134;48.768;9.184;2023-11-22T07:26:25;5.10;99.90
27741;DHT22;15134;48.768;9.184;2023-11-22T07:28:54;5.30;99.90
27741;DHT22;15134;48.768;9.184;2023-11-22T07:31:20;5.40;99.90
27741;DHT22;15134;48.768;9.184;2023-11-22T07:33:46;5.30;99.90
27741;DHT22;15134;48.768;9.184;2023-11-22T07:36:14;5.20;99.90
27741;DHT22;15134;48.768;9.184;2023-11-22T07:38:42;5.20;99.90
27741;DHT22;15134;48.768;9.184;2023-11-22T07:41:08;5.10;99.90
27741;DHT22;15134;48.768;9.184;2023-11-22T07:43:34;5.10;99.90
27741;DHT22;15134;48.768;9.184;2023-11-22T07:46:07;5.10;99.90
27741;DHT22;15134;48.768;9.184;2023-11-22T07:48:39;5.10;99.90
27741;DHT22;15134;48.768;9.184;2023-11-22T07:51:07;5.10;99.90
27741;DHT22;15134;48.768;9.184;2023-11-22T07:53:33;5.10;99.90
27741;DHT22;15134;48.768;9.184;2023-11-22T07:56:00;5.10;99.90
27741;DHT22;15134;48.768;9.184;2023-11-22T07:58:33;5.20;99.90
27741;DHT22;15134;48.768;9.184;2023-11-22T08:00:59;5.20;99.90
27741;DHT22;15134;48.768;9.184;2023-11-22T08:03:26;5.10;99.90
27741;DHT22;15134;48.768;9.184;2023-11-22T08:05:52;5.10;99.90
27741;DHT22;15134;48.768;9.184;2023-11-22T08:08:22;5.00;99.90
27741;DHT22;15134;48.768;9.184;2023-11-22T08:10:48;5.10;99.90
27741;DHT22;15134;48.768;9.184;2023-11-22T08:13:15;5.20;99.90
27741;DHT22;15134;48.768;9.184;2023-11-22T08:15:45;5.30;99.90
27741;DHT22;15134;48.768;9.184;2023-11-22T08:18:13;5.40;99.90
27741;DHT22;15134;48.768;9.184;2023-11-22T08:20:38;5.40;99.90
27741;DHT22;15134;48.768;9.184;2023-11-22T08:23:04;5.50;99.90
27741;DHT22;15134;48.768;9.184;2023-11-22T08:25:32;5.50;99.90
27741;DHT22;15134;48.768;9.184;2023-11-22T08:27:58;5.60;99.90
27741;DHT22;15134;48.768;9.184;2023-11-22T08:30:23;5.50;99.90
27741;DHT22;15134;48.768;9.184;2023-11-22T08:32:49;5.30;99.90
27741;DHT22;15134;48.768;9.184;2023-11-22T08:35:19;5.20;99.90
27741;DHT22;15134;48.768;9.184;2023-11-22T08:37:49;5.30;99.90
27741;DHT22;15134;48.768;9.184;2023-11-22T08:40:16;5.20;99.90
27741;DHT22;15134;48.768;9.184;2023-11-22T08:42:48;5.00;99.90
27741;DHT22;15134;48.768;9.184;2023-11-22T08:45:14;4.80;99.90
27741;DHT22;15134;48.768;9.184;2023-11-22T08:47:40;4.60;99.90
27741;DHT22;15134;48.768;9.184;2023-11-22T08:50:07;4.50;99.90
27741;DHT22;15134;48.768;9.184;2023-11-22T08:52:34;4.60;99.90
27741;DHT22;15134;48.768;9.184;2023-11-22T08:55:00;4.60;99.90
27741;DHT22;15134;48.768;9.184;2023-11-22T08:57:27;4.80;99.90
27741;DHT22;15134;48.768;9.184;2023-11-22T08:59:52;4.80;99.90
27741;DHT22;15134;48.768;9.184;2023-11-22T09:02:19;5.00;99.90
27741;DHT22;15134;48.768;9.184;2023-11-22T09:04:48;5.00;99.90
27741;DHT22;15134;48.768;9.184;2023-11-22T09:07:14;5.00;99.90
27741;DHT22;15134;48.768;9.184;2023-11-22T09:09:43;5.10;99.90
27741;DHT22;15134;48.768;9.184;2023-11-22T09:12:09;5.20;99.90
27741;DHT22;15134;48.768;9.184;2023-11-22T09:14:41;5.20;99.90
27741;DHT22;15134;48.768;9.184;2023-11-22T09:17:09;5.10;99.90
27741;DHT22;15134;48.768;9.184;2023-11-22T09:19:35;5.10;99.90
27741;DHT22;15134;48.768;9.184;2023-11-22T09:22:01;5.10;99.90
27741;DHT22;15134;48.768;9.184;2023-11-22T09:24:27;5.10;99.90
27741;DHT22;15134;48.768;9.184;2023-11-22T09:26:53;5.20;99.90
27741;DHT22;15134;48.768;9.184;2023-11-22T09:29:19;5.30;99.90
27741;DHT22;15134;48.768;9.184;2023-11-22T09:31:44;5.30;99.90
27741;DHT22;15134;48.768;9.184;2023-11-22T09:34:13;5.40;99.90
27741;DHT22;15134;48.768;9.184;2023-11-22T09:36:39;5.40;99.90
27741;DHT22;15134;48.768;9.184;2023-11-22T09:39:05;5.40;99.90
27741;DHT22;15134;48.768;9.184;2023-11-22T09:41:37;5.40;99.90
27741;DHT22;15134;48.768;9.184;2023-11-22T09:44:04;5.50;99.90
27741;DHT22;15134;48.768;9.184;2023-11-22T09:46:31;5.50;99.90
27741;DHT22;15134;48.768;9.184;2023-11-22T09:49:00;5.40;99.90
27741;DHT22;15134;48.768;9.184;2023-11-22T09:51:32;5.50;99.90
27741;DHT22;15134;48.768;9.184;2023-11-22T09:54:00;5.50;99.90
27741;DHT22;15134;48.768;9.184;2023-11-22T09:56:30;5.50;99.90
27741;DHT22;15134;48.768;9.184;2023-11-22T09:58:59;5.50;99.90
27741;DHT22;15134;48.768;9.184;2023-11-22T10:01:27;5.40;99.90
27741;DHT22;15134;48.768;9.184;2023-11-22T10:04:03;5.30;99.90
27741;DHT22;15134;48.768;9.184;2023-11-22T10:06:31;5.20;99.90
27741;DHT22;15134;48.768;9.184;2023-11-22T10:09:01;5.20;99.90
27741;DHT22;15134;48.768;9.184;2023-11-22T10:11:28;5.10;99.90
27741;DHT22;15134;48.768;9.184;2023-11-22T10:13:54;5.00;99.90
27741;DHT22;15134;48.768;9.184;2023-11-22T10:16:22;4.90;99.90
27741;DHT22;15134;48.768;9.184;2023-11-22T10:18:49;5.00;99.90
27741;DHT22;15134;48.768;9.184;2023-11-22T10:21:29;5.00;99.90
27741;DHT22;15134;48.768;9.184;2023-11-22T10:23:56;5.20;99.90
27741;DHT22;15134;48.768;9.184;2023-11-22T10:26:23;5.10;99.90
27741;DHT22;15134;48.768;9.184;2023-11-22T10:28:57;5.20;99.90
27741;DHT22;15134;48.768;9.184;2023-11-22T10:31:23;5.30;99.90
27741;DHT22;15134;48.768;9.184;2023-11-22T10:33:50;5.20;99.90
27741;DHT22;15134;48.768;9.184;2023-11-22T10:36:16;5.10;99.90
27741;DHT22;15134;48.768;9.184;2023-11-22T10:38:49;5.10;99.90
27741;DHT22;15134;48.768;9.184;2023-11-22T10:41:20;5.20;99.90
27741;DHT22;15134;48.768;9.184;2023-11-22T10:43:51;5.30;99.90
27741;DHT22;15134;48.768;9.184;2023-11-22T10:46:17;5.40;99.90
27741;DHT22;15134;48.768;9.184;2023-11-22T10:48:44;5.50;99.90
27741;DHT22;15134;48.768;9.184;2023-11-22T10:51:13;5.60;99.90
27741;DHT22;15134;48.768;9.184;2023-11-22T10:53:48;5.70;99.90
27741;DHT22;15134;48.768;9.184;2023-11-22T10:56:15;5.70;99.90
27741;DHT22;15134;48.768;9.184;2023-11-22T10:58:52;5.80;99.90
27741;DHT22;15134;48.768;9.184;2023-11-22T11:01:22;5.90;99.90
27741;DHT22;15134;48.768;9.184;2023-11-22T11:04:00;5.80;99.90
27741;DHT22;15134;48.768;9.184;2023-11-22T11:06:31;5.80;99.90
27741;DHT22;15134;48.768;9.184;2023-11-22T11:09:00;5.70;99.90
27741;DHT22;15134;48.768;9.184;2023-11-22T11:11:28;5.70;99.90
27741;DHT22;15134;48.768;9.184;2023-11-22T11:13:54;5.70;99.90
27741;DHT22;15134;48.768;9.184;2023-11-22T11:16:22;5.80;99.90
27741;DHT22;15134;48.768;9.184;2023-11-22T11:18:49;5.80;99.90
27741;DHT22;15134;48.768;9.184;2023-11-22T11:21:15;5.90;99.90
27741;DHT22;15134;48.768;9.184;2023-11-22T11:23:41;5.90;99.90
27741;DHT22;15134;48.768;9.184;2023-11-22T11:28:46;5.90;99.90
27741;DHT22;15134;48.768;9.184;2023-11-22T11:31:13;5.70;99.90
27741;DHT22;15134;48.768;9.184;2023-11-22T11:36:32;5.60;99.90
27741;DHT22;15134;48.768;9.184;2023-11-22T11:39:00;5.60;99.90
27741;DHT22;15134;48.768;9.184;2023-11-22T11:41:32;5.60;99.90
27741;DHT22;15134;48.768;9.184;2023-11-22T11:44:03;5.50;99.90
27741;DHT22;15134;48.768;9.184;2023-11-22T11:46:32;5.50;99.90
27741;DHT22;15134;48.768;9.184;2023-11-22T11:48:58;5.60;99.90
27741;DHT22;15134;48.768;9.184;2023-11-22T11:51:26;5.40;99.90
27741;DHT22;15134;48.768;9.184;2023-11-22T11:53:55;5.40;99.90
27741;DHT22;15134;48.768;9.184;2023-11-22T11:56:22;5.40;99.90
27741;DHT22;15134;48.768;9.184;2023-11-22T11:58:49;5.30;99.90
27741;DHT22;15134;48.768;9.184;2023-11-22T12:01:16;5.20;99.90
27741;DHT22;15134;48.768;9.184;2023-11-22T12:03:45;5.20;99.90
27741;DHT22;15134;48.768;9.184;2023-11-22T12:06:15;5.20;99.90
27741;DHT22;15134;48.768;9.184;2023-11-22T12:08:40;5.10;99.90
27741;DHT22;15134;48.768;9.184;2023-11-22T12:11:06;5.10;99.90
27741;DHT22;15134;48.768;9.184;2023-11-22T12:13:34;5.10;99.90
27741;DHT22;15134;48.768;9.184;2023-11-22T12:16:01;5.20;99.90
27741;DHT22;15134;48.768;9.184;2023-11-22T12:18:28;5.20;99.90
27741;DHT22;15134;48.768;9.184;2023-11-22T12:20:58;5.30;99.90
27741;DHT22;15134;48.768;9.184;2023-11-22T12:23:26;5.40;99.90
27741;DHT22;15134;48.768;9.184;2023-11-22T12:26:01;5.50;99.90
27741;DHT22;15134;48.768;9.184;2023-11-22T12:28:29;5.30;99.90
27741;DHT22;15134;48.768;9.184;2023-11-22T12:30:55;5.20;99.90
27741;DHT22;15134;48.768;9.184;2023-11-22T12:33:31;5.10;99.90
27741;DHT22;15134;48.768;9.184;2023-11-22T12:35:57;5.00;99.90
27741;DHT22;15134;48.768;9.184;2023-11-22T12:38:23;4.90;99.90
27741;DHT22;15134;48.768;9.184;2023-11-22T12:40:51;4.80;99.90
27741;DHT22;15134;48.768;9.184;2023-11-22T12:43:17;5.00;99.90
27741;DHT22;15134;48.768;9.184;2023-11-22T12:45:43;4.90;99.90
27741;DHT22;15134;48.768;9.184;2023-11-22T12:48:24;4.90;99.90
27741;DHT22;15134;48.768;9.184;2023-11-22T12:50:51;5.00;99.90
27741;DHT22;15134;48.768;9.184;2023-11-22T12:53:17;4.80;99.90
27741;DHT22;15134;48.768;9.184;2023-11-22T12:55:48;4.80;99.90
27741;DHT22;15134;48.768;9.184;2023-11-22T12:58:19;4.70;99.90
27741;DHT22;15134;48.768;9.184;2023-11-22T13:00:46;4.50;99.90
27741;DHT22;15134;48.768;9.184;2023-11-22T13:03:13;4.50;99.90
27741;DHT22;15134;48.768;9.184;2023-11-22T13:05:40;4.60;99.90
27741;DHT22;15134;48.768;9.184;2023-11-22T13:08:09;4.80;99.90
27741;DHT22;15134;48.768;9.184;2023-11-22T13:10:39;4.90;99.90
27741;DHT22;15134;48.768;9.184;2023-11-22T13:13:05;5.00;99.90
27741;DHT22;15134;48.768;9.184;2023-11-22T13:15:34;5.10;99.90
27741;DHT22;15134;48.768;9.184;2023-11-22T13:18:00;5.10;99.90
27741;DHT22;15134;48.768;9.184;2023-11-22T13:20:26;5.10;99.90
27741;DHT22;15134;48.768;9.184;2023-11-22T13:22:53;5.10;99.90
27741;DHT22;15134;48.768;9.184;2023-11-22T13:25:20;5.20;99.90
27741;DHT22;15134;48.768;9.184;2023-11-22T13:27:46;5.10;99.90
27741;DHT22;15134;48.768;9.184;2023-11-22T13:30:14;4.90;99.90
27741;DHT22;15134;48.768;9.184;2023-11-22T13:32:40;5.00;99.90
27741;DHT22;15134;48.768;9.184;2023-11-22T13:35:09;4.90;99.90
27741;DHT22;15134;48.768;9.184;2023-11-22T13:37:44;4.90;99.90
27741;DHT22;15134;48.768;9.184;2023-11-22T13:40:12;4.90;99.90
27741;DHT22;15134;48.768;9.184;2023-11-22T13:42:50;5.00;99.90
27741;DHT22;15134;48.768;9.184;2023-11-22T13:45:18;5.10;99.90
27741;DHT22;15134;48.768;9.184;2023-11-22T13:47:45;5.20;99.90
27741;DHT22;15134;48.768;9.184;2023-11-22T13:50:16;5.20;99.90
27741;DHT22;15134;48.768;9.184;2023-11-22T13:52:47;5.10;99.90
27741;DHT22;15134;48.768;9.184;2023-11-22T13:55:14;5.00;99.90
27741;DHT22;15134;48.768;9.184;2023-11-22T13:57:41;4.90;99.90
27741;DHT22;15134;48.768;9.184;2023-11-22T14:00:08;5.00;99.90
27741;DHT22;15134;48.768;9.184;2023-11-22T14:03:02;5.10;99.90
27741;DHT22;15134;48.768;9.184;2023-11-22T14:05:32;5.10;99.90
27741;DHT22;15134;48.768;9.184;2023-11-22T14:07:59;5.10;99.90
27741;DHT22;15134;48.768;9.184;2023-11-22T14:10:24;5.10;99.90
27741;DHT22;15134;48.768;9.184;2023-11-22T14:12:50;5.20;99.90
27741;DHT22;15134;48.768;9.184;2023-11-22T14:15:17;5.20;99.90
27741;DHT22;15134;48.768;9.184;2023-11-22T14:17:43;5.20;99.90
27741;DHT22;15134;48.768;9.184;2023-11-22T14:20:12;5.30;99.90
27741;DHT22;15134;48.768;9.184;2023-11-22T14:22:39;5.30;99.90
27741;DHT22;15134;48.768;9.184;2023-11-22T14:25:07;5.30;99.90
27741;DHT22;15134;48.768;9.184;2023-11-22T14:27:39;5.20;99.90
27741;DHT22;15134;48.768;9.184;2023-11-22T14:30:06;5.20;99.90
27741;DHT22;15134;48.768;9.184;2023-11-22T14:32:34;5.10;99.90
27741;DHT22;15134;48.768;9.184;2023-11-22T14:35:05;5.10;99.90
27741;DHT22;15134;48.768;9.184;2023-11-22T14:37:33;5.10;99.90
27741;DHT22;15134;48.768;9.184;2023-11-22T14:40:00;5.10;99.90
27741;DHT22;15134;48.768;9.184;2023-11-22T14:42:25;5.00;99.90
27741;DHT22;15134;48.768;9.184;2023-11-22T14:44:51;4.80;99.90
27741;DHT22;15134;48.768;9.184;2023-11-22T14:47:18;4.90;99.90
27741;DHT22;15134;48.768;9.184;2023-11-22T14:49:56;4.90;99.90
27741;DHT22;15134;48.768;9.184;2023-11-22T14:52:21;4.90;99.90
27741;DHT22;15134;48.768;9.184;2023-11-22T14:54:48;4.90;99.90
27741;DHT22;15134;48.768;9.184;2023-11-22T14:57:15;4.90;99.90
27741;DHT22;15134;48.768;9.184;2023-11-22T14:59:43;4.90;99.90
27741;DHT22;15134;48.768;9.184;2023-11-22T15:02:10;5.00;99.90
27741;DHT22;15134;48.768;9.184;2023-11-22T15:04:37;5.10;99.90
27741;DHT22;15134;48.768;9.184;2023-11-22T15:07:04;5.20;99.90
27741;DHT22;15134;48.768;9.184;2023-11-22T15:09:32;5.10;99.90
27741;DHT22;15134;48.768;9.184;2023-11-22T15:12:01;5.10;99.90
27741;DHT22;15134;48.768;9.184;2023-11-22T15:14:32;5.00;99.90
27741;DHT22;15134;48.768;9.184;2023-11-22T15:16:59;5.10;99.90
27741;DHT22;15134;48.768;9.184;2023-11-22T15:19:31;5.10;99.90
27741;DHT22;15134;48.768;9.184;2023-11-22T15:21:57;5.10;99.90
27741;DHT22;15134;48.768;9.184;2023-11-22T15:24:24;5.10;99.90
27741;DHT22;15134;48.768;9.184;2023-11-22T15:26:50;5.00;99.90
27741;DHT22;15134;48.768;9.184;2023-11-22T15:29:15;4.90;99.90
27741;DHT22;15134;48.768;9.184;2023-11-22T15:31:43;4.80;99.90
27741;DHT22;15134;48.768;9.184;2023-11-22T15:34:10;4.80;99.90
27741;DHT22;15134;48.768;9.184;2023-11-22T15:36:36;4.90;99.90
27741;DHT22;15134;48.768;9.184;2023-11-22T15:39:02;5.00;99.90
27741;DHT22;15134;48.768;9.184;2023-11-22T15:41:29;5.00;99.90
27741;DHT22;15134;48.768;9.184;2023-11-22T15:43:54;4.90;99.90
27741;DHT22;15134;48.768;9.184;2023-11-22T15:46:20;4.90;99.90
27741;DHT22;15134;48.768;9.184;2023-11-22T15:48:50;4.90;99.90
27741;DHT22;15134;48.768;9.184;2023-11-22T15:51:16;5.00;99.90
27741;DHT22;15134;48.768;9.184;2023-11-22T15:53:43;5.10;99.90
27741;DHT22;15134;48.768;9.184;2023-11-22T15:56:08;4.90;99.90
27741;DHT22;15134;48.768;9.184;2023-11-22T15:58:44;4.80;99.90
27741;DHT22;15134;48.768;9.184;2023-11-22T16:01:10;4.80;99.90
27741;DHT22;15134;48.768;9.184;2023-11-22T16:03:37;4.80;99.90
27741;DHT22;15134;48.768;9.184;2023-11-22T16:06:05;4.90;99.90
27741;DHT22;15134;48.768;9.184;2023-11-22T16:08:31;4.90;99.90
27741;DHT22;15134;48.768;9.184;2023-11-22T16:10:58;5.00;99.90
27741;DHT22;15134;48.768;9.184;2023-11-22T16:13:24;5.10;99.90
27741;DHT22;15134;48.768;9.184;2023-11-22T16:15:52;5.10;99.90